Latest Weather Observations for Bendigo

IDV60801

Issued at 4:32 pm EDT Saturday 25 March 2017 (issued every 30 minutes, with the page automatically refreshed every 10 minutes)

About weather observations | Map of weather stations | Latest weather observations for VIC | Other Formats
Station Details ID: 081123 Name: BENDIGO AIRPORT Lat: -36.74 Lon: 144.33 Height: 208.0 m
Data from the previous 72 hours. | See also: Recent months at Bendigo
Date/Time
EDT
Temp
°C
App
Temp
°C
Dew
Point
°C
Rel
Hum
%
Delta-T
°C
Wind Press
QNH
hPa
Press
MSL
hPa
Rain since
9am
mm
Dir  Spd
km/h
Gust
km/h
Spd
kts
Gust
kts
25/04:30pm 27.4 29.0 17.0 53 6.6 NNE 4 13 2 7 1011.6 1011.1 0.0
25/04:00pm 27.3 29.6 17.8 56 6.1 NNW 2 13 1 7 1011.9 1011.3 0.0
25/03:30pm 26.4 27.7 17.2 57 5.8 N 6 17 3 9 1012.3 1011.7 0.0
25/03:00pm 25.5 26.9 17.4 61 5.1 NNE 6 13 3 7 1012.6 1012.0 0.0
25/02:30pm 25.4 26.2 17.3 61 5.1 E 9 17 5 9 1012.9 1012.3 0.0
25/02:00pm 24.7 25.9 17.4 64 4.6 NE 7 15 4 8 1013.1 1012.5 0.0
25/01:30pm 23.8 24.9 17.1 66 4.2 NE 7 13 4 7 1013.6 1013.0 0.0
25/01:00pm 23.2 23.4 16.7 67 4.0 NNE 11 15 6 8 1013.8 1013.2 0.0
25/12:30pm 22.5 22.7 16.8 70 3.5 ENE 11 15 6 8 1014.1 1013.5 0.0
25/12:00pm 22.5 23.2 17.0 71 3.4 E 9 15 5 8 1014.5 1013.9 0.0
25/11:30am 21.5 21.5 16.2 72 3.2 ENE 11 22 6 12 1014.8 1014.2 0.0
25/11:00am 20.5 20.4 16.1 76 2.7 E 11 19 6 10 1015.1 1014.6 0.0
25/10:30am 20.1 20.0 15.9 77 2.5 ENE 11 13 6 7 1014.9 1014.4 0.0
25/10:00am 19.6 19.3 15.5 77 2.4 E 11 17 6 9 1015.0 1014.5 0.0
25/09:30am 19.3 19.1 15.8 80 2.1 ESE 11 15 6 8 1014.7 1014.1 0.0
25/09:00am 18.9 19.1 15.8 82 1.9 ESE 9 13 5 7 1014.2 1013.6 0.2
25/08:30am 18.4 18.5 15.5 83 1.7 E 9 11 5 6 1013.9 1013.3 0.2
25/08:00am 18.2 18.3 15.6 85 1.5 SE 9 13 5 7 1013.9 1013.3 0.2
25/07:30am 18.2 19.0 15.8 86 1.4 ESE 6 9 3 5 1013.5 1012.9 0.2
25/07:00am 18.3 19.3 15.4 83 1.7 SE 4 7 2 4 1013.4 1012.8 0.2
25/06:30am 18.6 18.9 15.1 80 2.1 E 7 11 4 6 1012.9 1012.3 0.0
25/06:00am 18.5 18.9 15.4 82 1.8 SE 7 9 4 5 1013.1 1012.5 0.0
25/05:30am 18.9 20.3 14.4 75 2.6 CALM 0 4 0 2 1013.2 1012.6 0.0
25/05:00am 19.0 19.2 14.3 74 2.7 ESE 6 7 3 4 1013.3 1012.7 0.0
25/04:30am 19.2 19.1 13.8 71 3.1 SSE 7 9 4 5 1013.1 1012.5 0.0
25/04:00am 19.9 19.3 13.4 66 3.7 ESE 9 13 5 7 1012.9 1012.3 0.0
25/03:30am 20.0 18.9 13.0 64 4.0 E 11 15 6 8 1013.0 1012.4 0.0
25/03:00am 20.2 19.0 12.9 63 4.2 ESE 11 17 6 9 1013.8 1013.2 0.0
25/02:30am 19.7 18.7 13.4 67 3.6 SSE 11 15 6 8 1014.5 1013.9 0.0
25/02:00am 19.3 18.3 13.5 69 3.3 SSE 11 15 6 8 1014.7 1014.1 0.0
25/01:30am 19.2 18.6 13.4 69 3.3 SSE 9 13 5 7 1014.7 1014.1 0.0
25/01:00am 18.6 18.1 13.7 73 2.8 SE 9 13 5 7 1014.8 1014.2 0.0
25/12:30am 18.6 18.1 13.9 74 2.7 SSE 9 11 5 6 1014.7 1014.1 0.0
25/12:00am 19.0 18.9 13.8 72 3.0 SSE 7 9 4 5 1014.4 1013.8 0.0
 
Date/Time
EDT
Temp
°C
App
Temp
°C
Dew
Point
°C
Rel
Hum
%
Delta-T
°C
Wind Press
QNH
hPa
Press
MSL
hPa
Rain since
9am
mm
Dir  Spd
km/h
Gust
km/h
Spd
kts
Gust
kts
24/11:30pm 18.9 19.7 13.7 72 3.0 ESE 2 7 1 4 1014.9 1014.4 0.0
24/11:00pm 18.9 20.1 13.7 72 3.0 CALM 0 0 0 0 1015.4 1014.9 0.0
24/10:30pm 18.5 19.9 14.4 77 2.4 CALM 0 0 0 0 1015.7 1015.2 0.0
24/10:00pm 19.5 20.7 13.9 70 3.2 CALM 0 0 0 0 1015.6 1015.1 0.0
24/09:30pm 19.7 21.1 14.3 71 3.2 CALM 0 6 0 3 1015.3 1014.8 0.0
24/09:00pm 20.3 21.6 14.0 67 3.7 CALM 0 0 0 0 1015.2 1014.7 0.0
24/08:30pm 20.7 20.8 13.9 65 4.0 SE 6 7 3 4 1015.1 1014.6 0.0
24/08:00pm 21.2 21.4 14.1 64 4.2 SE 6 7 3 4 1015.2 1014.7 0.0
24/07:30pm 22.6 23.3 13.4 56 5.4 SE 2 7 1 4 1015.2 1014.7 0.0
24/07:00pm 24.3 24.1 12.9 49 6.6 ESE 6 9 3 5 1015.0 1014.5 0.0
24/06:30pm 25.0 23.8 12.9 47 7.1 E 11 15 6 8 1014.6 1014.0 0.0
24/06:00pm 25.3 24.5 12.9 46 7.3 ESE 9 15 5 8 1015.0 1014.5 0.0
24/05:30pm 25.6 24.2 12.1 43 7.8 ESE 11 15 6 8 1014.8 1014.2 0.0
24/05:00pm 25.5 24.2 12.4 44 7.6 E 11 17 6 9 1014.6 1014.0 0.0
24/04:30pm 25.8 24.1 12.3 43 7.8 ENE 13 22 7 12 1014.8 1014.2 0.0
24/04:00pm 25.3 24.6 11.5 42 7.9 NNE 6 15 3 8 1015.1 1014.6 0.0
24/03:30pm 25.8 24.9 12.6 44 7.7 NE 9 17 5 9 1015.5 1015.0 0.0
24/03:00pm 24.5 23.4 12.1 46 7.1 ENE 9 17 5 9 1015.9 1015.4 0.0
24/02:30pm 24.7 23.7 12.3 46 7.2 NE 9 19 5 10 1016.3 1015.8 0.0
24/02:00pm 24.3 22.8 11.9 45 7.1 NE 11 15 6 8 1017.2 1016.6 0.0
24/01:30pm 23.9 22.7 12.8 49 6.4 ESE 11 17 6 9 1017.5 1016.9 0.0
24/01:00pm 23.2 22.8 13.1 53 5.9 ESE 7 11 4 6 1018.1 1017.5 0.0
24/12:30pm 22.2 22.0 13.0 56 5.3 ENE 6 15 3 8 1018.6 1018.0 0.0
24/12:00pm 21.7 21.2 12.8 57 5.1 E 7 15 4 8 1018.8 1018.2 0.0
24/11:30am 21.0 20.3 13.2 61 4.5 ENE 9 13 5 7 1019.1 1018.6 0.0
24/11:00am 20.4 19.2 12.9 62 4.3 E 11 15 6 8 1019.2 1018.7 0.0
24/10:30am 19.9 18.7 12.9 64 4.0 E 11 17 6 9 1019.1 1018.6 0.0
24/10:00am 19.3 18.4 12.6 65 3.8 ESE 9 15 5 8 1019.2 1018.7 0.0
24/09:30am 17.9 16.9 12.4 70 3.1 SE 9 15 5 8 1019.3 1018.8 0.0
24/09:00am 17.2 15.6 12.7 75 2.5 SSE 13 17 7 9 1019.0 1018.4 0.0
24/08:30am 15.8 13.7 12.4 80 1.9 SSE 15 19 8 10 1018.9 1018.3 0.0
24/08:00am 14.4 11.9 12.3 87 1.1 SSE 17 20 9 11 1018.4 1017.8 0.0
24/07:30am 13.9 11.3 12.1 89 1.0 SSE 17 20 9 11 1018.3 1017.7 0.0
24/07:00am 13.7 11.9 12.1 90 0.9 SSE 13 17 7 9 1018.1 1017.5 0.0
24/06:30am 14.0 11.5 12.2 89 1.0 SSE 17 20 9 11 1017.9 1017.3 0.0
24/06:00am 14.6 11.6 12.5 87 1.2 SE 20 24 11 13 1017.8 1017.2 0.0
24/05:30am 14.6 11.8 12.6 88 1.1 SSE 19 24 10 13 1018.0 1017.4 0.0
24/05:00am 14.5 12.1 12.5 88 1.1 SSE 17 22 9 12 1018.0 1017.4 0.0
24/04:30am 14.9 12.2 12.8 87 1.2 SSE 19 24 10 13 1018.0 1017.4 0.0
24/04:00am 15.3 12.4 12.8 85 1.4 SSE 20 24 11 13 1018.2 1017.6 0.0
24/03:30am 15.4 12.6 13.1 86 1.3 SSE 20 24 11 13 1018.3 1017.7 0.0
24/03:00am 15.7 13.1 13.2 85 1.4 SSE 19 22 10 12 1018.5 1017.9 0.0
24/02:30am 15.9 13.3 13.2 84 1.5 SSE 19 26 10 14 1018.6 1018.0 0.0
24/02:00am 16.2 13.5 13.5 84 1.5 SSE 20 26 11 14 1018.9 1018.3 0.0
24/01:30am 16.3 13.6 13.6 84 1.5 SSE 20 24 11 13 1018.6 1018.0 0.0
24/01:00am 16.6 14.2 13.7 83 1.6 SSE 19 22 10 12 1018.6 1018.0 0.0
24/12:30am 16.9 14.5 13.8 82 1.8 SSE 19 24 10 13 1018.9 1018.3 0.0
24/12:00am 17.2 14.8 13.7 80 2.0 SSE 19 24 10 13 1018.8 1018.2 0.0
 
Date/Time
EDT
Temp
°C
App
Temp
°C
Dew
Point
°C
Rel
Hum
%
Delta-T
°C
Wind Press
QNH
hPa
Press
MSL
hPa
Rain since
9am
mm
Dir  Spd
km/h
Gust
km/h
Spd
kts
Gust
kts
23/11:30pm 17.5 15.5 13.8 79 2.1 SSE 17 24 9 13 1019.0 1018.4 0.0
23/11:00pm 17.8 15.2 13.9 78 2.2 SSE 20 26 11 14 1019.0 1018.4 0.0
23/10:30pm 18.1 15.5 13.8 76 2.5 SSE 20 28 11 15 1019.0 1018.4 0.0
23/10:00pm 18.5 15.9 13.8 74 2.7 SSE 20 28 11 15 1018.6 1018.0 0.0
23/09:30pm 19.1 16.1 13.7 71 3.1 SSE 22 28 12 15 1018.5 1017.9 0.0
23/09:00pm 19.6 16.9 13.5 68 3.5 SSE 20 32 11 17 1018.3 1017.7 0.0
23/08:30pm 20.2 17.3 12.9 63 4.2 SSE 20 28 11 15 1018.0 1017.4 0.0
23/08:00pm 21.1 18.2 12.8 59 4.8 SSE 20 30 11 16 1017.8 1017.2 0.0
23/07:30pm 21.8 19.6 13.2 58 5.0 SSE 17 28 9 15 1017.6 1017.0 0.0
23/07:00pm 22.8 21.0 13.3 55 5.5 SSE 15 24 8 13 1017.2 1016.6 0.0
23/06:30pm 23.6 20.8 13.2 52 6.1 SE 20 28 11 15 1017.0 1016.4 0.0
23/06:00pm 24.4 21.6 13.3 50 6.5 SE 20 28 11 15 1016.7 1016.2 0.0
23/05:30pm 24.9 22.8 13.5 49 6.7 ESE 17 24 9 13 1016.6 1016.1 0.0
23/05:00pm 25.2 22.8 13.7 49 6.8 ESE 19 26 10 14 1016.4 1015.9 0.0
23/04:30pm 25.2 22.5 13.4 48 7.0 SE 20 28 11 15 1016.6 1016.1 0.0
23/04:00pm 25.3 22.1 13.2 47 7.1 SE 22 30 12 16 1016.6 1016.1 0.0
23/03:30pm 24.8 21.9 14.0 51 6.4 SSE 22 32 12 17 1016.6 1016.1 0.0
23/03:00pm 25.6 23.9 13.5 47 7.2 ESE 15 22 8 12 1016.7 1016.2 0.0
23/02:30pm 24.6 23.1 13.2 49 6.7 ESE 13 20 7 11 1017.1 1016.5 0.0
23/02:00pm 24.5 22.7 13.4 50 6.5 ESE 15 24 8 13 1017.6 1017.0 0.0
23/01:30pm 23.1 20.4 13.0 53 5.9 ESE 19 26 10 14 1018.1 1017.5 0.0
23/01:00pm 22.7 20.3 14.3 59 5.0 SSE 20 26 11 14 1018.3 1017.7 0.0
23/12:30pm 22.4 20.0 13.7 58 5.1 SSE 19 28 10 15 1018.5 1017.9 0.0
23/12:00pm 20.8 18.4 13.7 64 4.1 SSE 19 24 10 13 1018.8 1018.2 0.0
23/11:30am 19.5 15.9 13.2 67 3.6 SSE 24 33 13 18 1019.1 1018.6 0.0
23/11:00am 19.3 15.8 13.3 68 3.4 SSE 24 33 13 18 1019.1 1018.6 0.0
23/10:30am 18.6 14.6 13.0 70 3.2 SSE 26 35 14 19 1018.9 1018.3 0.0
23/10:00am 18.5 14.9 13.1 71 3.1 SSE 24 35 13 19 1018.9 1018.3 0.0
23/09:30am 17.9 13.9 13.0 73 2.8 SSE 26 35 14 19 1018.6 1018.0 0.0
23/09:00am 16.8 13.5 12.9 78 2.2 SSE 22 32 12 17 1018.3 1017.7 0.2
23/08:30am 16.2 12.5 12.7 80 2.0 SSE 24 35 13 19 1018.0 1017.4 0.2
23/08:00am 16.1 12.4 12.7 80 1.9 SSE 24 30 13 16 1017.7 1017.1 0.2
23/07:30am 16.2 12.5 12.6 79 2.0 SSE 24 33 13 18 1017.4 1016.8 0.2
23/07:00am 16.1 12.3 12.5 79 2.0 SSE 24 37 13 20 1017.3 1016.7 0.2
23/06:30am 16.0 11.5 12.6 80 1.9 SSE 28 43 15 23 1017.1 1016.5 0.2
23/06:00am 15.9 12.2 12.6 81 1.8 SSE 24 35 13 19 1016.9 1016.3 0.2
23/05:30am 15.9 12.9 12.5 80 1.9 SSE 20 26 11 14 1016.4 1015.9 0.2
23/05:00am 16.1 13.1 12.5 79 2.0 SE 20 28 11 15 1016.4 1015.9 0.2
23/04:30am 16.2 12.8 12.6 79 2.0 SE 22 33 12 18 1016.4 1015.9 0.2
23/04:00am 16.4 12.7 12.8 79 2.0 SSE 24 37 13 20 1016.3 1015.8 0.2
23/03:30am 16.5 12.8 12.8 79 2.1 SSE 24 35 13 19 1016.3 1015.8 0.2
23/03:00am 16.8 12.8 13.1 79 2.1 SE 26 33 14 18 1016.6 1016.1 0.2
23/02:30am 16.6 12.6 12.9 79 2.1 SSE 26 37 14 20 1016.6 1016.1 0.2
23/02:00am 16.6 12.5 12.8 78 2.1 SSE 26 35 14 19 1016.9 1016.3 0.2
23/01:30am 17.0 13.0 12.9 77 2.3 SSE 26 35 14 19 1016.9 1016.3 0.2
23/01:00am 17.3 13.7 13.0 76 2.4 SSE 24 32 13 17 1017.0 1016.4 0.2
23/12:30am 17.4 12.7 13.1 76 2.4 SSE 30 41 16 22 1017.0 1016.4 0.2
23/12:00am 17.5 12.4 13.2 76 2.4 SSE 32 41 17 22 1016.9 1016.3 0.2
 
Date/Time
EDT
Temp
°C
App
Temp
°C
Dew
Point
°C
Rel
Hum
%
Delta-T
°C
Wind Press
QNH
hPa
Press
MSL
hPa
Rain since
9am
mm
Dir  Spd
km/h
Gust
km/h
Spd
kts
Gust
kts
22/11:30pm 17.4 12.8 13.5 78 2.2 SSE 30 41 16 22 1016.5 1016.0 0.2
22/11:00pm 17.5 12.5 13.4 77 2.3 SSE 32 46 17 25 1016.6 1016.1 0.2
22/10:30pm 17.6 12.9 13.3 76 2.4 SSE 30 43 16 23 1016.4 1015.9 0.2
22/10:15pm 17.8 12.8 13.5 76 2.5 SSE 32 50 17 27 1016.6 1016.1 0.2
22/10:00pm 18.0 12.8 13.5 75 2.6 SSE 33 48 18 26 1016.4 1015.9 0.2
22/09:30pm 18.5 14.5 14.0 75 2.6 SE 28 46 15 25 1015.8 1015.3 0.2
22/09:19pm 18.6 14.1 13.9 74 2.7 SSE 30 50 16 27 1015.8 1015.3 0.2
22/09:00pm 18.8 14.0 13.9 73 2.8 SSE 32 44 17 24 1015.7 1015.2 0.2
22/08:30pm 19.2 15.2 14.0 72 3.0 SSE 28 39 15 21 1015.4 1014.9 0.2
22/08:00pm 19.3 15.7 14.1 72 3.0 SSE 26 43 14 23 1014.9 1014.4 0.2
22/07:30pm 19.4 15.4 14.2 72 3.0 SSE 28 37 15 20 1014.4 1013.8 0.2
22/07:00pm 20.0 16.1 14.4 70 3.3 SSE 28 39 15 21 1014.1 1013.5 0.2
22/06:30pm 20.6 16.6 14.0 66 3.9 SSE 28 41 15 22 1013.9 1013.3 0.2
22/06:07pm 20.9 17.1 14.8 68 3.6 SSE 28 46 15 25 1013.9 1013.3 0.2
22/06:00pm 20.9 16.8 14.8 68 3.6 SSE 30 46 16 25 1013.9 1013.3 0.2
22/05:30pm 21.5 17.8 15.1 67 3.8 S 28 43 15 23 1014.0 1013.4 0.2
22/05:00pm 21.5 17.8 14.9 66 3.9 SSE 28 44 15 24 1014.0 1013.4 0.2

Other Formats:

Comma delimited format used in spreadsheet applications
http://www.bom.gov.au/fwo/IDV60801/IDV60801.94855.axf

JavaScript Object Notation format (JSON) in row-major order
http://www.bom.gov.au/fwo/IDV60801/IDV60801.94855.json